Time;durP1;ratioP1;P1;durP2;ratioP2;P2;SDS_P1;SDS_P2;PMS_P1;PMS_P2;Temp;Humidity;BMP_temperature;BMP_pressure;BME280_temperature;BME280_humidity;BME280_pressure;Samples;Min_cycle;Max_cycle;Signal;HPM_P1;HPM_P2
2021/10/05 00:02:03;;;;;;;;;2.00;2.00;;;;;;;;5124946;27;8885;-75
2021/10/05 00:04:28;;;;;;;;;2.50;2.25;;;;;;;;5119339;27;8760;-75
2021/10/05 00:06:53;;;;;;;;;1.00;1.00;;;;;;;;5126574;27;8971;-75
2021/10/05 00:09:19;;;;;;;;;1.33;1.00;;;;;;;;5125782;27;8830;-75
2021/10/05 00:11:44;;;;;;;;;1.00;1.00;;;;;;;;5127914;27;8870;-75
2021/10/05 00:14:09;;;;;;;;;3.33;3.00;;;;;;;;5127525;27;8808;-75
2021/10/05 00:16:34;;;;;;;;;3.33;2.33;;;;;;;;5122828;27;8827;-75
2021/10/05 00:19:00;;;;;;;;;1.67;1.67;;;;;;;;5117053;27;8847;-75
2021/10/05 00:21:25;;;;;;;;;2.00;2.00;;;;;;;;5133413;27;8808;-75
2021/10/05 00:23:50;;;;;;;;;2.00;2.00;;;;;;;;5123398;27;8905;-75
2021/10/05 00:26:15;;;;;;;;;2.00;1.00;;;;;;;;5124693;27;8993;-75
2021/10/05 00:28:41;;;;;;;;;2.00;2.00;;;;;;;;5124643;27;8921;-75
2021/10/05 00:31:07;;;;;;;;;2.00;1.00;;;;;;;;5128256;27;8821;-75
2021/10/05 00:33:32;;;;;;;;;4.00;3.00;;;;;;;;5126444;27;8852;-75
2021/10/05 00:35:57;;;;;;;;;3.00;3.00;;;;;;;;5122563;27;8825;-75
2021/10/05 00:38:23;;;;;;;;;2.00;2.00;;;;;;;;5123664;27;8909;-75
2021/10/05 00:40:48;;;;;;;;;2.00;2.00;;;;;;;;5125305;27;8819;-75
2021/10/05 00:43:13;;;;;;;;;2.00;1.33;;;;;;;;5130758;27;8816;-75
2021/10/05 00:45:38;;;;;;;;;3.33;2.00;;;;;;;;5127582;27;8836;-74
2021/10/05 00:48:04;;;;;;;;;2.33;2.00;;;;;;;;5129608;27;8828;-75
2021/10/05 00:50:30;;;;;;;;;3.00;2.00;;;;;;;;5122932;27;8832;-75
2021/10/05 00:52:55;;;;;;;;;1.67;1.67;;;;;;;;5119246;27;9460;-75
2021/10/05 00:55:20;;;;;;;;;1.00;1.00;;;;;;;;5126840;27;8802;-75
2021/10/05 00:57:46;;;;;;;;;2.33;1.00;;;;;;;;5119682;27;8808;-76
2021/10/05 01:00:12;;;;;;;;;0.67;0.67;;;;;;;;5128066;27;8981;-75
2021/10/05 01:02:38;;;;;;;;;2.33;1.00;;;;;;;;5128239;27;8809;-76
2021/10/05 01:05:03;;;;;;;;;2.33;2.33;;;;;;;;5138095;27;8838;-75
2021/10/05 01:07:29;;;;;;;;;1.00;1.00;;;;;;;;5132198;27;8796;-75
2021/10/05 01:09:55;;;;;;;;;2.00;2.00;;;;;;;;5128723;27;9709;-76
2021/10/05 01:12:20;;;;;;;;;2.00;2.00;;;;;;;;5122893;27;8846;-75
2021/10/05 01:14:45;;;;;;;;;2.00;2.00;;;;;;;;5130663;27;11056;-75
2021/10/05 01:17:11;;;;;;;;;1.00;1.00;;;;;;;;5127444;27;8917;-75
2021/10/05 01:19:36;;;;;;;;;1.00;1.00;;;;;;;;5121968;27;8837;-75
2021/10/05 01:22:02;;;;;;;;;0.00;0.00;;;;;;;;5124092;27;8831;-75
2021/10/05 01:24:27;;;;;;;;;1.33;1.33;;;;;;;;5131573;27;8812;-75
2021/10/05 01:26:53;;;;;;;;;2.00;1.00;;;;;;;;5130122;27;8828;-75
2021/10/05 01:29:21;;;;;;;;;4.25;3.00;;;;;;;;5122902;27;8786;-75
2021/10/05 01:31:48;;;;;;;;;2.00;2.00;;;;;;;;5134868;27;8793;-76
2021/10/05 01:34:13;;;;;;;;;2.25;1.75;;;;;;;;5124847;27;8791;-75
2021/10/05 01:36:39;;;;;;;;;2.00;2.00;;;;;;;;5124661;27;8842;-75
2021/10/05 01:39:05;;;;;;;;;2.33;2.33;;;;;;;;5125700;27;8792;-77
2021/10/05 01:41:30;;;;;;;;;4.00;2.50;;;;;;;;5129621;27;8865;-76
2021/10/05 01:43:56;;;;;;;;;2.00;1.33;;;;;;;;5128707;27;8957;-75
2021/10/05 01:46:21;;;;;;;;;2.33;2.33;;;;;;;;5132124;27;9548;-76
2021/10/05 01:48:46;;;;;;;;;2.67;1.00;;;;;;;;5129706;27;8854;-75
2021/10/05 01:51:12;;;;;;;;;1.00;1.00;;;;;;;;5125658;27;8826;-76
2021/10/05 01:53:38;;;;;;;;;1.00;1.00;;;;;;;;5137458;27;8856;-75
2021/10/05 01:56:04;;;;;;;;;2.33;1.33;;;;;;;;5125950;27;8818;-76
2021/10/05 01:58:29;;;;;;;;;1.25;1.25;;;;;;;;5127423;27;8886;-76
2021/10/05 02:00:55;;;;;;;;;1.00;0.67;;;;;;;;5128392;27;8832;-75
2021/10/05 02:03:20;;;;;;;;;3.00;2.00;;;;;;;;5128644;27;8819;-75
2021/10/05 02:05:46;;;;;;;;;0.67;0.00;;;;;;;;5128507;27;8811;-76
2021/10/05 02:08:11;;;;;;;;;2.00;2.00;;;;;;;;5126951;27;8892;-77
2021/10/05 02:10:37;;;;;;;;;2.00;1.00;;;;;;;;5121046;27;9576;-75
2021/10/05 02:13:03;;;;;;;;;1.00;1.00;;;;;;;;5132214;27;8830;-76
2021/10/05 02:15:28;;;;;;;;;2.00;1.00;;;;;;;;5126378;27;8865;-75
2021/10/05 02:17:53;;;;;;;;;2.00;2.00;;;;;;;;5126044;27;8811;-76
2021/10/05 02:20:18;;;;;;;;;1.33;1.33;;;;;;;;5131198;27;8844;-75
2021/10/05 02:22:44;;;;;;;;;1.67;1.67;;;;;;;;5131383;27;8835;-75
2021/10/05 02:25:09;;;;;;;;;0.67;0.67;;;;;;;;5123539;27;8799;-75
2021/10/05 02:27:35;;;;;;;;;3.00;2.00;;;;;;;;5130623;27;8828;-76
2021/10/05 02:30:00;;;;;;;;;3.00;1.67;;;;;;;;5125513;27;8850;-75
2021/10/05 02:32:25;;;;;;;;;2.00;2.00;;;;;;;;5128261;27;8795;-75
2021/10/05 02:34:50;;;;;;;;;2.00;2.00;;;;;;;;5125338;27;8814;-75
2021/10/05 02:37:16;;;;;;;;;2.33;2.33;;;;;;;;5133136;27;8978;-75
2021/10/05 02:39:41;;;;;;;;;3.00;1.33;;;;;;;;5138909;27;8812;-76
2021/10/05 02:42:07;;;;;;;;;1.67;1.67;;;;;;;;5137963;27;8812;-76
2021/10/05 02:44:32;;;;;;;;;1.00;1.00;;;;;;;;5135102;27;8823;-75
2021/10/05 02:46:57;;;;;;;;;0.00;0.00;;;;;;;;5117202;28;8907;-75
2021/10/05 02:49:23;;;;;;;;;2.67;2.67;;;;;;;;5118616;27;8803;-76
2021/10/05 02:51:48;;;;;;;;;2.67;2.67;;;;;;;;5118636;27;8892;-75
2021/10/05 02:54:13;;;;;;;;;2.00;2.00;;;;;;;;5118631;27;8803;-76
2021/10/05 02:56:39;;;;;;;;;1.00;1.00;;;;;;;;5118673;28;8791;-75
2021/10/05 02:59:04;;;;;;;;;1.00;0.67;;;;;;;;5117139;28;8835;-75
2021/10/05 03:01:29;;;;;;;;;1.00;1.00;;;;;;;;5116890;28;8893;-76
2021/10/05 03:03:54;;;;;;;;;2.00;2.00;;;;;;;;5117252;28;8896;-75
2021/10/05 03:06:20;;;;;;;;;0.00;0.00;;;;;;;;5116770;28;9555;-75
2021/10/05 03:08:45;;;;;;;;;0.67;0.67;;;;;;;;5118439;27;8783;-75
2021/10/05 03:11:11;;;;;;;;;3.33;2.00;;;;;;;;5118226;27;8814;-75
2021/10/05 03:13:36;;;;;;;;;1.00;1.00;;;;;;;;5118395;27;8807;-76
2021/10/05 03:16:05;;;;;;;;;2.67;2.67;;;;;;;;5118175;27;9597;-75
2021/10/05 03:18:31;;;;;;;;;2.75;1.75;;;;;;;;5118114;27;8868;-76
2021/10/05 03:20:56;;;;;;;;;1.33;1.33;;;;;;;;5116949;28;8858;-75
2021/10/05 03:23:21;;;;;;;;;2.00;2.00;;;;;;;;5115988;28;8842;-75
2021/10/05 03:25:47;;;;;;;;;1.00;1.00;;;;;;;;5116913;28;8901;-75
2021/10/05 03:28:12;;;;;;;;;1.00;1.00;;;;;;;;5116728;28;9401;-75
2021/10/05 03:30:37;;;;;;;;;1.00;1.00;;;;;;;;5140493;27;8802;-76
2021/10/05 03:33:03;;;;;;;;;2.00;2.00;;;;;;;;5159484;27;8793;-76
2021/10/05 03:35:28;;;;;;;;;2.33;2.33;;;;;;;;5124079;27;9598;-77
2021/10/05 03:37:53;;;;;;;;;2.33;2.00;;;;;;;;5116433;28;8799;-76
2021/10/05 03:40:18;;;;;;;;;2.00;2.00;;;;;;;;5116554;28;8830;-75
2021/10/05 03:42:44;;;;;;;;;1.00;1.00;;;;;;;;5117971;27;8826;-75
2021/10/05 03:45:09;;;;;;;;;3.00;3.00;;;;;;;;5128112;27;8824;-76
2021/10/05 03:47:36;;;;;;;;;2.00;2.00;;;;;;;;5138137;27;8801;-76
2021/10/05 03:50:03;;;;;;;;;5.00;2.00;;;;;;;;5138088;27;8869;-76
2021/10/05 03:52:28;;;;;;;;;1.25;1.00;;;;;;;;5138116;27;8788;-76
2021/10/05 03:54:53;;;;;;;;;2.00;2.00;;;;;;;;5138477;27;8839;-76
2021/10/05 03:57:18;;;;;;;;;2.00;2.00;;;;;;;;5138372;27;8785;-77
2021/10/05 03:59:45;;;;;;;;;2.00;1.00;;;;;;;;5133015;27;8967;-76
2021/10/05 04:02:10;;;;;;;;;2.00;2.00;;;;;;;;5117567;27;8809;-76
2021/10/05 04:04:35;;;;;;;;;3.00;2.33;;;;;;;;5117518;27;9573;-75
2021/10/05 04:07:00;;;;;;;;;2.33;2.00;;;;;;;;5117417;27;8815;-76
2021/10/05 04:09:26;;;;;;;;;1.67;1.67;;;;;;;;5117621;27;8814;-76
2021/10/05 04:11:51;;;;;;;;;2.00;2.00;;;;;;;;5117436;27;8941;-75
2021/10/05 04:14:16;;;;;;;;;3.00;3.00;;;;;;;;5117459;27;8791;-76
2021/10/05 04:16:41;;;;;;;;;4.67;4.00;;;;;;;;5131860;27;8816;-77
2021/10/05 04:19:07;;;;;;;;;4.00;2.67;;;;;;;;5137961;27;8788;-76
2021/10/05 04:21:32;;;;;;;;;5.00;4.00;;;;;;;;5137709;27;8863;-76
2021/10/05 04:23:57;;;;;;;;;3.67;3.33;;;;;;;;5137848;27;9559;-76
2021/10/05 04:26:22;;;;;;;;;2.00;2.00;;;;;;;;5136553;27;8838;-75
2021/10/05 04:28:47;;;;;;;;;3.67;3.67;;;;;;;;5137864;27;8796;-76
2021/10/05 04:31:13;;;;;;;;;6.33;3.33;;;;;;;;5150407;27;8932;-76
2021/10/05 04:33:38;;;;;;;;;5.00;5.00;;;;;;;;5157494;27;8854;-75
2021/10/05 04:36:03;;;;;;;;;2.67;2.67;;;;;;;;5158332;27;8790;-76
2021/10/05 04:38:29;;;;;;;;;4.00;4.00;;;;;;;;5158396;27;8863;-75
2021/10/05 04:40:54;;;;;;;;;5.33;4.33;;;;;;;;5158406;27;8935;-76
2021/10/05 04:43:19;;;;;;;;;4.33;3.67;;;;;;;;5158348;27;8785;-75
2021/10/05 04:45:45;;;;;;;;;6.33;4.00;;;;;;;;5149326;27;9558;-75
2021/10/05 04:48:10;;;;;;;;;7.00;7.00;;;;;;;;5115349;28;8803;-75
2021/10/05 04:50:36;;;;;;;;;4.00;4.00;;;;;;;;5116900;27;8869;-75
2021/10/05 04:53:02;;;;;;;;;4.33;3.67;;;;;;;;5116875;27;8811;-75
2021/10/05 04:55:27;;;;;;;;;4.00;4.00;;;;;;;;5116752;27;11482;-76
2021/10/05 04:57:53;;;;;;;;;4.00;4.00;;;;;;;;5116936;27;10565;-76
2021/10/05 05:00:18;;;;;;;;;3.00;3.00;;;;;;;;5125520;27;8951;-75
2021/10/05 05:02:43;;;;;;;;;4.33;4.33;;;;;;;;5137139;27;8796;-75
2021/10/05 05:05:09;;;;;;;;;4.00;4.00;;;;;;;;5135922;27;8901;-76
2021/10/05 05:07:34;;;;;;;;;4.00;4.00;;;;;;;;5137062;27;8857;-75
2021/10/05 05:10:02;;;;;;;;;2.67;2.67;;;;;;;;5137138;27;8796;-75
2021/10/05 05:12:27;;;;;;;;;4.00;4.00;;;;;;;;5123682;27;9698;-76
2021/10/05 05:14:52;;;;;;;;;7.00;5.67;;;;;;;;5116470;27;8849;-77
2021/10/05 05:17:17;;;;;;;;;5.33;4.33;;;;;;;;5116228;27;9669;-76
2021/10/05 05:19:43;;;;;;;;;1.33;1.33;;;;;;;;5120525;27;8844;-77
2021/10/05 05:22:08;;;;;;;;;6.00;6.00;;;;;;;;5136908;27;8780;-76
2021/10/05 05:24:33;;;;;;;;;4.00;4.00;;;;;;;;5136984;27;8857;-77
2021/10/05 05:26:58;;;;;;;;;5.00;4.00;;;;;;;;5136987;27;8926;-77
2021/10/05 05:29:24;;;;;;;;;5.33;4.67;;;;;;;;5136475;27;8827;-77
2021/10/05 05:31:51;;;;;;;;;6.00;5.67;;;;;;;;5155533;27;9513;-78
2021/10/05 05:34:17;;;;;;;;;6.00;5.00;;;;;;;;5136895;27;8859;-76
2021/10/05 05:36:42;;;;;;;;;6.33;4.67;;;;;;;;5136522;27;8808;-77
2021/10/05 05:39:07;;;;;;;;;5.00;3.67;;;;;;;;5136887;27;9589;-77
2021/10/05 05:41:32;;;;;;;;;4.00;4.00;;;;;;;;5135300;27;8816;-77
2021/10/05 05:43:58;;;;;;;;;4.00;2.00;;;;;;;;5133282;27;8814;-80
2021/10/05 05:46:23;;;;;;;;;3.33;3.33;;;;;;;;5126925;27;8815;-79
2021/10/05 05:48:48;;;;;;;;;4.33;2.67;;;;;;;;5127526;27;8806;-79
2021/10/05 05:51:13;;;;;;;;;2.67;2.00;;;;;;;;5120704;28;9562;-80
2021/10/05 05:53:39;;;;;;;;;4.00;3.33;;;;;;;;5119542;27;8834;-82
2021/10/05 05:56:04;;;;;;;;;2.67;2.00;;;;;;;;5120902;28;8791;-82
2021/10/05 05:58:30;;;;;;;;;3.00;3.00;;;;;;;;5124060;28;8818;-78
2021/10/05 06:00:55;;;;;;;;;1.00;1.00;;;;;;;;5123562;27;8819;-78
2021/10/05 06:03:20;;;;;;;;;1.00;1.00;;;;;;;;5121146;27;8787;-78
2021/10/05 06:05:46;;;;;;;;;2.00;2.00;;;;;;;;5120636;27;8803;-79
2021/10/05 06:08:11;;;;;;;;;2.00;1.00;;;;;;;;5124679;27;8819;-77
2021/10/05 06:10:37;;;;;;;;;2.00;2.00;;;;;;;;5122336;27;8811;-77
2021/10/05 06:13:02;;;;;;;;;2.00;2.00;;;;;;;;5120022;27;8902;-79
2021/10/05 06:15:27;;;;;;;;;3.00;1.00;;;;;;;;5118826;28;8811;-78
2021/10/05 06:17:53;;;;;;;;;1.67;1.67;;;;;;;;5119878;27;8851;-78
2021/10/05 06:20:20;;;;;;;;;1.67;1.67;;;;;;;;5122810;27;8830;-79
2021/10/05 06:22:45;;;;;;;;;2.00;2.00;;;;;;;;5141216;27;8749;-78
2021/10/05 06:25:15;;;;;;;;;0.33;0.33;;;;;;;;5131694;27;8781;-81
2021/10/05 06:27:40;;;;;;;;;1.00;1.00;;;;;;;;5146003;27;8717;-81
2021/10/05 06:30:07;;;;;;;;;5.00;1.00;;;;;;;;5150598;27;8818;-81
2021/10/05 06:32:32;;;;;;;;;2.75;1.50;;;;;;;;5163568;27;8790;-82
2021/10/05 06:34:58;;;;;;;;;1.00;1.00;;;;;;;;5143098;27;8820;-81
2021/10/05 06:37:23;;;;;;;;;2.00;1.00;;;;;;;;5135744;27;8825;-79
2021/10/05 06:39:48;;;;;;;;;1.00;1.00;;;;;;;;5118948;27;8914;-80
2021/10/05 06:42:13;;;;;;;;;4.00;1.00;;;;;;;;5119447;27;8779;-81
2021/10/05 06:44:38;;;;;;;;;1.00;1.00;;;;;;;;5120122;27;8783;-81
2021/10/05 06:47:04;;;;;;;;;1.67;1.00;;;;;;;;5119685;28;8894;-81
2021/10/05 06:49:29;;;;;;;;;1.67;1.67;;;;;;;;5126709;27;8827;-81
2021/10/05 06:51:54;;;;;;;;;2.33;2.33;;;;;;;;5138824;27;9539;-81
2021/10/05 06:54:19;;;;;;;;;1.00;1.00;;;;;;;;5121049;27;8818;-81
2021/10/05 06:56:45;;;;;;;;;1.33;1.33;;;;;;;;5122119;27;8783;-81
2021/10/05 06:59:10;;;;;;;;;2.00;2.00;;;;;;;;5131110;27;8886;-82
2021/10/05 07:01:35;;;;;;;;;3.00;3.00;;;;;;;;5118364;27;9417;-82
2021/10/05 07:04:00;;;;;;;;;3.00;3.00;;;;;;;;5118801;27;8787;-81
2021/10/05 07:06:26;;;;;;;;;3.00;2.00;;;;;;;;5117452;28;8858;-81
2021/10/05 07:08:51;;;;;;;;;2.33;2.33;;;;;;;;5118432;27;8814;-81
2021/10/05 07:11:16;;;;;;;;;2.00;2.00;;;;;;;;5133341;27;8816;-81
2021/10/05 07:13:43;;;;;;;;;2.33;2.33;;;;;;;;5137816;27;8834;-81
2021/10/05 07:16:08;;;;;;;;;2.00;2.00;;;;;;;;5138919;27;8798;-81
2021/10/05 07:18:34;;;;;;;;;2.00;2.00;;;;;;;;5138678;27;9556;-81
2021/10/05 07:21:00;;;;;;;;;1.00;1.00;;;;;;;;5137533;27;8801;-81
2021/10/05 07:23:25;;;;;;;;;1.00;1.00;;;;;;;;5137410;27;8780;-80
2021/10/05 07:25:50;;;;;;;;;3.00;3.00;;;;;;;;5138955;27;8831;-81
2021/10/05 07:28:16;;;;;;;;;2.00;1.00;;;;;;;;5137481;27;8788;-80
2021/10/05 07:30:43;;;;;;;;;3.67;2.00;;;;;;;;5150390;27;8860;-79
2021/10/05 07:33:08;;;;;;;;;2.75;2.75;;;;;;;;5129923;27;8787;-79
2021/10/05 07:35:34;;;;;;;;;2.33;2.33;;;;;;;;5119096;27;8880;-79
2021/10/05 07:37:59;;;;;;;;;2.67;2.67;;;;;;;;5137651;27;8897;-79
2021/10/05 07:40:25;;;;;;;;;1.67;1.67;;;;;;;;5137316;27;8935;-82
2021/10/05 07:42:51;;;;;;;;;2.00;1.00;;;;;;;;5141569;27;8796;-79
2021/10/05 07:45:17;;;;;;;;;2.25;2.25;;;;;;;;5120852;27;8764;-82
2021/10/05 07:47:42;;;;;;;;;1.00;1.00;;;;;;;;5139514;27;8831;-81
2021/10/05 07:50:08;;;;;;;;;1.00;1.00;;;;;;;;5136094;27;8804;-83
2021/10/05 07:52:33;;;;;;;;;2.00;1.00;;;;;;;;5128408;27;8811;-82
2021/10/05 07:54:58;;;;;;;;;1.00;1.00;;;;;;;;5128660;27;8807;-83
2021/10/05 07:57:23;;;;;;;;;1.00;0.33;;;;;;;;5123421;27;8831;-84
2021/10/05 07:59:50;;;;;;;;;1.00;1.00;;;;;;;;5125500;27;8896;-87
2021/10/05 08:02:16;;;;;;;;;2.00;1.75;;;;;;;;5125538;27;8867;-84
2021/10/05 08:04:41;;;;;;;;;1.33;1.33;;;;;;;;5127502;27;8822;-81
2021/10/05 08:07:06;;;;;;;;;1.00;1.00;;;;;;;;5128663;27;8907;-83
2021/10/05 08:09:31;;;;;;;;;1.00;1.00;;;;;;;;5142366;27;8972;-80
2021/10/05 08:11:57;;;;;;;;;3.33;2.00;;;;;;;;5125864;27;8803;-80
2021/10/05 08:14:22;;;;;;;;;1.00;1.00;;;;;;;;5135340;27;8830;-82
2021/10/05 08:16:47;;;;;;;;;2.00;2.00;;;;;;;;5131242;27;8780;-80
2021/10/05 08:19:12;;;;;;;;;2.00;2.00;;;;;;;;5133617;27;8802;-82
2021/10/05 08:21:38;;;;;;;;;2.00;1.00;;;;;;;;5126212;27;8960;-83
2021/10/05 08:24:03;;;;;;;;;2.00;1.00;;;;;;;;5131465;27;8901;-83
2021/10/05 08:26:28;;;;;;;;;1.00;1.00;;;;;;;;5130895;27;8821;-82
2021/10/05 08:28:53;;;;;;;;;1.67;1.00;;;;;;;;5126560;27;8991;-83
2021/10/05 08:31:19;;;;;;;;;0.00;0.00;;;;;;;;5132163;27;8795;-81
2021/10/05 08:33:45;;;;;;;;;1.67;1.00;;;;;;;;5126263;27;8862;-82
2021/10/05 08:36:10;;;;;;;;;0.00;0.00;;;;;;;;5133444;27;8860;-81
2021/10/05 08:38:36;;;;;;;;;1.67;1.00;;;;;;;;5143186;27;9513;-80
2021/10/05 08:41:04;;;;;;;;;3.25;1.25;;;;;;;;5145661;27;8767;-82
2021/10/05 08:43:29;;;;;;;;;1.00;1.00;;;;;;;;5131406;27;8803;-84
2021/10/05 08:45:56;;;;;;;;;1.67;1.67;;;;;;;;5133318;27;8826;-82
2021/10/05 08:48:27;;;;;;;;;1.75;1.75;;;;;;;;5137434;27;8772;-83
2021/10/05 08:50:52;;;;;;;;;2.75;1.00;;;;;;;;5142396;27;8981;-82
2021/10/05 08:53:17;;;;;;;;;0.33;0.33;;;;;;;;5143144;27;8804;-82
2021/10/05 08:55:44;;;;;;;;;2.00;1.33;;;;;;;;5138319;27;8788;-81
2021/10/05 08:58:09;;;;;;;;;2.00;1.50;;;;;;;;5134460;27;8780;-79
2021/10/05 09:00:35;;;;;;;;;0.67;0.33;;;;;;;;5130861;27;8933;-78
2021/10/05 09:03:00;;;;;;;;;0.67;0.67;;;;;;;;5138076;27;8807;-80
2021/10/05 09:05:26;;;;;;;;;1.67;1.67;;;;;;;;5138136;27;8819;-82
2021/10/05 09:07:52;;;;;;;;;2.00;2.00;;;;;;;;5135895;27;9582;-83
2021/10/05 09:10:19;;;;;;;;;0.50;0.50;;;;;;;;5137245;27;9045;-83
2021/10/05 09:12:44;;;;;;;;;2.75;1.25;;;;;;;;5138892;27;8776;-83
2021/10/05 09:15:11;;;;;;;;;2.67;2.33;;;;;;;;5136480;27;8816;-80
2021/10/05 09:17:37;;;;;;;;;1.00;1.00;;;;;;;;5137809;27;8860;-82
2021/10/05 09:20:13;;;;;;;;;1.00;1.00;;;;;;;;5139042;27;8795;-80
2021/10/05 09:22:38;;;;;;;;;1.25;1.25;;;;;;;;5128428;27;8724;-80
2021/10/05 09:25:05;;;;;;;;;0.67;0.67;;;;;;;;5123605;27;8929;-81
2021/10/05 09:27:30;;;;;;;;;1.00;1.00;;;;;;;;5145673;27;8850;-81
2021/10/05 09:29:55;;;;;;;;;1.00;1.00;;;;;;;;5151018;27;8774;-83
2021/10/05 09:32:21;;;;;;;;;1.00;1.00;;;;;;;;5138297;27;8816;-80
2021/10/05 09:34:51;;;;;;;;;1.00;1.00;;;;;;;;5141450;27;8789;-81
2021/10/05 09:37:16;;;;;;;;;0.75;0.75;;;;;;;;5141953;27;8765;-81
2021/10/05 09:39:44;;;;;;;;;0.00;0.00;;;;;;;;5142559;27;8902;-80
2021/10/05 09:42:10;;;;;;;;;0.00;0.00;;;;;;;;5144401;27;8772;-80
2021/10/05 09:44:36;;;;;;;;;3.00;3.00;;;;;;;;5142276;27;9738;-79
2021/10/05 09:47:01;;;;;;;;;1.33;1.33;;;;;;;;5141258;27;8838;-78
2021/10/05 09:49:27;;;;;;;;;0.67;0.67;;;;;;;;5138232;27;8776;-78
2021/10/05 09:52:09;;;;;;;;;0.33;0.33;;;;;;;;5120351;27;8823;-79
2021/10/05 09:54:58;;;;;;;;;0.00;0.00;;;;;;;;5121966;28;8795;-85
2021/10/05 09:57:24;;;;;;;;;0.75;0.00;;;;;;;;5121655;27;8822;-78
2021/10/05 09:59:55;;;;;;;;;0.00;0.00;;;;;;;;5140501;27;8824;-80
2021/10/05 10:02:21;;;;;;;;;0.00;0.00;;;;;;;;5143836;27;8812;-80
2021/10/05 10:04:47;;;;;;;;;0.33;0.00;;;;;;;;5134032;27;8842;-81
2021/10/05 10:07:12;;;;;;;;;0.00;0.00;;;;;;;;5135679;27;8804;-81
2021/10/05 10:09:38;;;;;;;;;0.00;0.00;;;;;;;;5140501;27;8887;-82
2021/10/05 10:12:03;;;;;;;;;0.67;0.67;;;;;;;;5143283;27;8866;-79
2021/10/05 10:14:29;;;;;;;;;0.00;0.00;;;;;;;;5158712;27;8789;-79
2021/10/05 10:16:54;;;;;;;;;1.00;1.00;;;;;;;;5159084;27;8849;-79
2021/10/05 10:19:30;;;;;;;;;1.00;0.67;;;;;;;;5155005;27;8819;-80
2021/10/05 10:22:09;;;;;;;;;1.00;1.00;;;;;;;;5153712;27;8808;-79
2021/10/05 10:24:48;;;;;;;;;1.25;0.25;;;;;;;;5155208;27;8721;-79
2021/10/05 10:27:13;;;;;;;;;0.25;0.25;;;;;;;;5159279;27;8953;-80
2021/10/05 10:29:39;;;;;;;;;1.67;1.67;;;;;;;;5153111;27;8761;-78
2021/10/05 10:32:08;;;;;;;;;0.33;0.33;;;;;;;;5146385;27;8761;-80
2021/10/05 10:34:33;;;;;;;;;2.00;2.00;;;;;;;;5142881;27;8705;-80
2021/10/05 10:37:08;;;;;;;;;1.67;1.67;;;;;;;;5142869;27;8865;-79
2021/10/05 10:39:38;;;;;;;;;2.00;1.00;;;;;;;;5154176;27;8693;-81
2021/10/05 10:42:04;;;;;;;;;2.00;1.25;;;;;;;;5142391;27;8772;-80
2021/10/05 10:44:34;;;;;;;;;0.67;0.67;;;;;;;;5138774;27;8884;-80
2021/10/05 10:47:19;;;;;;;;;1.75;1.75;;;;;;;;5137479;27;9683;-79
2021/10/05 10:49:58;;;;;;;;;2.00;2.00;;;;;;;;5142493;27;8781;-80
2021/10/05 10:52:26;;;;;;;;;3.25;3.25;;;;;;;;5142615;27;8834;-80
2021/10/05 10:54:55;;;;;;;;;2.25;2.00;;;;;;;;5147565;27;8713;-79
2021/10/05 10:57:30;;;;;;;;;4.00;3.25;;;;;;;;5141907;27;8761;-77
2021/10/05 10:59:55;;;;;;;;;3.75;3.75;;;;;;;;5141807;27;8808;-79
2021/10/05 11:02:21;;;;;;;;;2.33;2.00;;;;;;;;5141364;27;8800;-82
2021/10/05 11:04:46;;;;;;;;;3.00;1.33;;;;;;;;5147392;27;9625;-83
2021/10/05 11:07:13;;;;;;;;;2.00;2.00;;;;;;;;5150132;27;8818;-80
2021/10/05 11:09:38;;;;;;;;;3.00;3.00;;;;;;;;5142887;27;9659;-81
2021/10/05 11:12:08;;;;;;;;;0.00;0.00;;;;;;;;5140441;27;8822;-79
2021/10/05 11:14:35;;;;;;;;;1.25;1.00;;;;;;;;5140113;27;9686;-80
2021/10/05 11:17:04;;;;;;;;;1.00;1.00;;;;;;;;5142746;27;8788;-80
2021/10/05 11:19:31;;;;;;;;;2.50;2.00;;;;;;;;5142946;27;8761;-80
2021/10/05 11:21:57;;;;;;;;;2.75;2.25;;;;;;;;5141942;27;8787;-78
2021/10/05 11:24:33;;;;;;;;;2.33;2.00;;;;;;;;5142176;27;8824;-80
2021/10/05 11:26:58;;;;;;;;;2.25;2.25;;;;;;;;5144782;27;8717;-80
2021/10/05 11:29:25;;;;;;;;;1.00;1.00;;;;;;;;5142891;27;9587;-79
2021/10/05 11:31:53;;;;;;;;;0.75;0.75;;;;;;;;5162952;27;8776;-82
2021/10/05 11:34:18;;;;;;;;;0.50;0.50;;;;;;;;5160621;27;8774;-82
2021/10/05 11:36:44;;;;;;;;;2.00;2.00;;;;;;;;5160643;27;8796;-81
2021/10/05 11:39:17;;;;;;;;;1.00;1.00;;;;;;;;5158284;27;8782;-81
2021/10/05 11:41:42;;;;;;;;;1.00;1.00;;;;;;;;5159479;27;8784;-80
2021/10/05 11:44:17;;;;;;;;;1.00;1.00;;;;;;;;5157575;27;8778;-81
2021/10/05 11:46:55;;;;;;;;;2.75;1.50;;;;;;;;5159330;27;8758;-82
2021/10/05 11:49:20;;;;;;;;;1.75;1.25;;;;;;;;5159234;27;8762;-83
2021/10/05 11:51:46;;;;;;;;;1.00;1.00;;;;;;;;5159331;27;8820;-82
2021/10/05 11:54:21;;;;;;;;;2.00;0.67;;;;;;;;5159841;27;8794;-82
2021/10/05 11:56:47;;;;;;;;;0.25;0.00;;;;;;;;5158126;27;8778;-83
2021/10/05 11:59:26;;;;;;;;;2.67;0.67;;;;;;;;5159167;27;8770;-82
2021/10/05 12:02:01;;;;;;;;;1.50;1.50;;;;;;;;5160447;27;8754;-81
2021/10/05 12:04:27;;;;;;;;;3.25;0.75;;;;;;;;5161056;27;8699;-83
2021/10/05 12:06:54;;;;;;;;;1.00;1.00;;;;;;;;5159523;27;8782;-84
2021/10/05 12:09:24;;;;;;;;;0.25;0.25;;;;;;;;5157717;27;8801;-83
2021/10/05 12:11:50;;;;;;;;;3.00;2.00;;;;;;;;5157539;27;8766;-82
2021/10/05 12:14:16;;;;;;;;;3.00;3.00;;;;;;;;5157662;27;8788;-82
2021/10/05 12:16:52;;;;;;;;;1.00;1.00;;;;;;;;5158592;27;8801;-86
2021/10/05 12:19:22;;;;;;;;;1.75;1.75;;;;;;;;5159007;27;12453;-81
2021/10/05 12:21:52;;;;;;;;;1.00;1.00;;;;;;;;5158483;27;8894;-80
2021/10/05 12:24:17;;;;;;;;;1.50;0.75;;;;;;;;5158563;27;8774;-80
2021/10/05 12:26:47;;;;;;;;;2.67;2.00;;;;;;;;5158723;27;8820;-85
2021/10/05 12:29:13;;;;;;;;;2.00;1.00;;;;;;;;5158871;27;8758;-81
2021/10/05 12:31:38;;;;;;;;;1.00;1.00;;;;;;;;5138056;27;8843;-82
2021/10/05 12:34:05;;;;;;;;;0.00;0.00;;;;;;;;5137282;27;8808;-83
2021/10/05 12:36:34;;;;;;;;;4.00;0.00;;;;;;;;5136405;27;8772;-83
2021/10/05 12:39:10;;;;;;;;;0.00;0.00;;;;;;;;5137089;27;8897;-82
2021/10/05 12:41:35;;;;;;;;;0.00;0.00;;;;;;;;5138298;27;8793;-84
2021/10/05 12:44:00;;;;;;;;;1.00;1.00;;;;;;;;5137950;27;8828;-82
2021/10/05 12:46:29;;;;;;;;;0.00;0.00;;;;;;;;5137818;27;9625;-82
2021/10/05 12:49:00;;;;;;;;;0.00;0.00;;;;;;;;5137773;27;8799;-82
2021/10/05 12:51:26;;;;;;;;;0.00;0.00;;;;;;;;5137806;27;8804;-83
2021/10/05 12:53:55;;;;;;;;;0.75;0.00;;;;;;;;5137937;27;8807;-82
2021/10/05 12:56:25;;;;;;;;;0.00;0.00;;;;;;;;5136766;27;8780;-81
2021/10/05 12:58:50;;;;;;;;;0.00;0.00;;;;;;;;5137954;27;8875;-85
2021/10/05 13:01:17;;;;;;;;;1.67;0.00;;;;;;;;5137568;27;8930;-83
2021/10/05 13:03:44;;;;;;;;;0.50;0.50;;;;;;;;5137850;27;8776;-83
2021/10/05 13:06:10;;;;;;;;;0.75;0.75;;;;;;;;5138369;27;9675;-83
2021/10/05 13:08:35;;;;;;;;;0.00;0.00;;;;;;;;5137846;27;10026;-82
2021/10/05 13:11:00;;;;;;;;;0.00;0.00;;;;;;;;5139012;27;8808;-84
2021/10/05 13:13:26;;;;;;;;;0.50;0.00;;;;;;;;5129912;27;8823;-83
2021/10/05 13:15:51;;;;;;;;;3.67;3.67;;;;;;;;5119350;27;8813;-82
2021/10/05 13:18:16;;;;;;;;;0.00;0.00;;;;;;;;5117793;27;8913;-83
2021/10/05 13:20:42;;;;;;;;;2.67;2.67;;;;;;;;5115641;28;8941;-84
2021/10/05 13:23:07;;;;;;;;;3.00;3.00;;;;;;;;5116585;27;8787;-83
2021/10/05 13:25:32;;;;;;;;;1.33;1.33;;;;;;;;5117993;27;9570;-81
2021/10/05 13:27:57;;;;;;;;;2.00;1.67;;;;;;;;5116828;27;8809;-82
2021/10/05 13:30:23;;;;;;;;;0.00;0.00;;;;;;;;5135524;27;8858;-81
2021/10/05 13:32:48;;;;;;;;;2.67;1.33;;;;;;;;5157849;27;8812;-80
2021/10/05 13:35:14;;;;;;;;;3.33;2.00;;;;;;;;5151734;27;8804;-82
2021/10/05 13:37:39;;;;;;;;;0.67;0.67;;;;;;;;5137620;27;8839;-83
2021/10/05 13:40:06;;;;;;;;;0.00;0.00;;;;;;;;5136461;27;8939;-81
2021/10/05 13:42:31;;;;;;;;;1.25;1.00;;;;;;;;5138802;27;8807;-81
2021/10/05 13:44:57;;;;;;;;;0.00;0.00;;;;;;;;5129787;27;8783;-81
2021/10/05 13:47:22;;;;;;;;;0.00;0.00;;;;;;;;5130009;27;8807;-78
2021/10/05 13:49:48;;;;;;;;;0.67;0.67;;;;;;;;5134235;27;8852;-76
2021/10/05 13:52:13;;;;;;;;;0.00;0.00;;;;;;;;5128867;27;8795;-78
2021/10/05 13:54:38;;;;;;;;;0.00;0.00;;;;;;;;5140808;27;8784;-78
2021/10/05 13:57:04;;;;;;;;;0.33;0.33;;;;;;;;5138433;27;8784;-79
2021/10/05 13:59:29;;;;;;;;;0.00;0.00;;;;;;;;5138893;27;8867;-78
2021/10/05 14:01:56;;;;;;;;;0.33;0.33;;;;;;;;5137288;27;8819;-79
2021/10/05 14:04:21;;;;;;;;;0.00;0.00;;;;;;;;5139983;27;8757;-78
2021/10/05 14:06:47;;;;;;;;;0.00;0.00;;;;;;;;5139686;27;8796;-79
2021/10/05 14:09:13;;;;;;;;;1.00;0.00;;;;;;;;5139789;27;8840;-79
2021/10/05 14:11:39;;;;;;;;;0.00;0.00;;;;;;;;5141814;27;8875;-79
2021/10/05 14:14:04;;;;;;;;;0.00;0.00;;;;;;;;5141963;27;8896;-80
2021/10/05 14:16:29;;;;;;;;;0.00;0.00;;;;;;;;5121899;27;9523;-79
2021/10/05 14:18:54;;;;;;;;;0.67;0.67;;;;;;;;5129701;27;8808;-79
2021/10/05 14:21:20;;;;;;;;;0.00;0.00;;;;;;;;5139784;27;8859;-80
2021/10/05 14:23:46;;;;;;;;;0.00;0.00;;;;;;;;5139213;27;8796;-81
2021/10/05 14:26:12;;;;;;;;;2.00;2.00;;;;;;;;5139815;27;9635;-81
2021/10/05 14:28:37;;;;;;;;;1.00;1.00;;;;;;;;5138333;27;9383;-81
2021/10/05 14:31:02;;;;;;;;;2.00;1.00;;;;;;;;5154321;27;8848;-80
2021/10/05 14:33:27;;;;;;;;;1.00;1.00;;;;;;;;5160488;27;9532;-81
2021/10/05 14:35:52;;;;;;;;;0.00;0.00;;;;;;;;5160705;27;8785;-81
2021/10/05 14:38:18;;;;;;;;;0.00;0.00;;;;;;;;5160390;27;8823;-81
2021/10/05 14:40:43;;;;;;;;;2.00;1.33;;;;;;;;5160481;27;8841;-83
2021/10/05 14:43:08;;;;;;;;;0.00;0.00;;;;;;;;5129367;27;8896;-82
2021/10/05 14:45:33;;;;;;;;;0.00;0.00;;;;;;;;5123385;27;8786;-80
2021/10/05 14:47:59;;;;;;;;;1.00;1.00;;;;;;;;5124637;27;8811;-81
2021/10/05 14:50:25;;;;;;;;;1.00;1.00;;;;;;;;5124214;27;8804;-78